Flight Track Log - Related Links

Times and Time Zones

All times are in EDT time to prevent confusion due to time zone crossing. See the SKW6345 flight status page for this flight to view local times or setup timezone preferences in your user account.

Time Position Orientation Groundspeed Altitude Reporting Facility
EDT Latitude Longitude Course Direction KTS MPH feet Rate Location/Type
Fri 08:05:50 PM 33.9506 -118.4711 338° Northwest 157 181 2,200  Level Los Angeles Center
Fri 08:06:52 PM 33.9572 -118.5336 277° West 174 200 4,300 1,887 Climbing Los Angeles Center
Fri 08:07:54 PM 33.9761 -118.5825 295° West 167 192 6,100 1,306 Climbing Los Angeles Center
Fri 08:08:56 PM 34.0181 -118.6211 323° Northwest 199 229 7,000 677 Climbing Los Angeles Center
Fri 08:09:58 PM 34.0850 -118.6294 354° North 240 276 7,500 1,200 Climbing Los Angeles Center
Fri 08:11:00 PM 34.2812 -118.5823 338° Northwest  Level FlightAware Approximate
Fri 08:11:01 PM 34.1469 -118.6392 353° North 225 259 9,500  Level Los Angeles Center
Fri 08:12:03 PM 34.2050 -118.6442 356° North 212 244 11,200 1,210 Climbing Los Angeles Center
Fri 08:13:05 PM 34.2631 -118.6647 344° North 214 246 12,000 387 Climbing Los Angeles Center
Fri 08:14:07 PM 34.3311 -118.6903 343° North 250 288 12,000  Level Los Angeles Center
Fri 08:15:09 PM 34.4189 -118.7200 344° North 271 312 12,000 48 Level Los Angeles Center
Fri 08:16:11 PM 34.4922 -118.7481 342° North 273 314 12,100 726 Climbing Los Angeles Center
Fri 08:17:13 PM 34.5603 -118.7703 345° North 253 291 13,500 1,200 Climbing Los Angeles Center
Fri 08:18:16 PM 34.6203 -118.7867 347° North 226 260 14,600 1,008 Climbing Los Angeles Center
Fri 08:19:18 PM 34.6797 -118.7983 351° North 216 249 15,600 677 Climbing Los Angeles Center
Fri 08:20:20 PM 34.7486 -118.8100 352° North 236 272 16,000 194 Climbing Los Angeles Center
Fri 08:21:22 PM 34.8358 -118.8231 353° North 269 310 16,000 -48 Level Los Angeles Center
Fri 08:22:24 PM 34.9122 -118.8381 351° North 278 320 15,900 48 Descending Los Angeles Center
Fri 08:23:26 PM 34.9889 -118.8517 352° North 278 320 16,100 484 Climbing Los Angeles Center
Fri 08:24:28 PM 35.0597 -118.8650 351° North 262 302 16,900 672 Climbing Los Angeles Center
Fri 08:25:31 PM 35.1258 -118.8769 352° North 248 285 17,500 720 Climbing Los Angeles Center
Fri 08:26:33 PM 35.2078 -118.8908 352° North 247 284 18,400 726 Climbing Los Angeles Center
Fri 08:27:35 PM 35.2747 -118.9028 352° North 247 284 19,000 629 Climbing Los Angeles Center
Fri 08:28:37 PM 35.3436 -118.9161 351° North 249 287 19,700 484 Climbing Los Angeles Center
Fri 08:29:39 PM 35.4156 -118.9294 351° North 256 295 20,000 145 Climbing Los Angeles Center
Fri 08:30:41 PM 35.4908 -118.9428 352° North 271 312 20,000  Level Los Angeles Center
Fri 08:31:43 PM 35.5872 -118.9603 352° North 285 328 20,000  Level Los Angeles Center
Fri 08:32:45 PM 35.6650 -118.9747 351° North 285 328 20,000 -48 Level Los Angeles Center
Fri 08:33:48 PM 35.7450 -118.9894 352° North 287 330 19,900 -720 Descending Los Angeles Center
Fri 08:34:50 PM 35.8231 -119.0006 353° North 287 330 18,500 -1,645 Descending Los Angeles Center
Fri 08:35:52 PM 35.9008 -119.0153 351° North 285 328 16,500 -1,742 Descending Los Angeles Center
Fri 08:36:54 PM 35.9708 -119.0494 338° Northwest 271 312 14,900 -1,210 Descending Los Angeles Center
Fri 08:37:56 PM 36.0522 -119.0883 339° North 266 306 14,000 -435 Descending Los Angeles Center
Fri 08:38:58 PM 36.1175 -119.1186 339° North 254 292 14,000  Level Los Angeles Center
Fri 08:40:00 PM 36.1861 -119.1508 339° North 259 298 14,000 -672 Level Los Angeles Center
Fri 08:41:03 PM 36.2622 -119.1847 340° North 280 322 12,600 -1,440 Descending Los Angeles Center
Fri 08:42:05 PM 36.3422 -119.2239 338° Northwest 300 345 11,000 -1,570 Descending Los Angeles Center
Fri 08:43:32 PM 36.4439 -119.2736 339° North 247 284 8,700 -1,500 Descending Oakland Center
Fri 08:44:33 PM 36.5042 -119.3014 340° North 235 270 7,300 -1,463 Descending Oakland Center
Fri 08:45:35 PM 36.5578 -119.3331 335° Northwest 219 252 5,700 -1,561 Descending Oakland Center
Fri 08:46:36 PM 36.5928 -119.3947 305° West 219 252 4,100 -836 Descending Oakland Center
Fri 08:47:37 PM 36.6261 -119.4533 305° West 213 245 4,000 -683 Descending Oakland Center
Fri 08:48:39 PM 36.6639 -119.5197 305° West 207 238 2,700 -1,073 Descending Oakland Center
Fri 08:49:40 PM 36.6942 -119.5731 305° West 199 229 1,800 -443 Descending Oakland Center
Fri 08:50:41 PM 36.7211 -119.6200 306° West 167 192 1,800 -244 Level Oakland Center
Fri 08:51:43 PM 36.7428 -119.6572 306° West 144 166 1,300 -537 Descending Oakland Center
Fri 08:52:44 PM 36.7633 -119.6942 305° West 128 147 700 -439 Descending Oakland Center
Fri 08:53:46 PM 36.7836 -119.7294 306° West 127 146 400 -290 Descending Oakland Center

Login

Don't have an account? Register now (free) for customized features, flight alerts, and more!